createdAt,value
2023-05-21T00:00:53.621Z,99650.63
2023-05-21T00:01:55.254Z,99644.47
2023-05-21T00:02:56.954Z,99645.47
2023-05-21T00:03:58.687Z,99642.44
2023-05-21T00:05:00.470Z,99640.31
2023-05-21T00:06:02.260Z,99643.66
2023-05-21T00:07:04.053Z,99645.97
2023-05-21T00:08:05.707Z,99642.34
2023-05-21T00:09:07.329Z,99636.38
2023-05-21T00:10:09.392Z,99632.38
2023-05-21T00:11:11.015Z,99626.00
2023-05-21T00:12:12.720Z,99630.00
2023-05-21T00:13:14.339Z,99626.53
2023-05-21T00:14:15.964Z,99631.72
2023-05-21T00:15:17.585Z,99626.94
2023-05-21T00:16:19.238Z,99629.97
2023-05-21T00:17:20.915Z,99628.53
2023-05-21T00:18:22.686Z,99630.00
2023-05-21T00:19:24.618Z,99632.19
2023-05-21T00:20:26.315Z,99639.84
2023-05-21T00:21:27.914Z,99635.38
2023-05-21T00:22:29.484Z,99628.94
2023-05-21T00:23:31.118Z,99637.38
2023-05-21T00:24:32.685Z,99635.44
2023-05-21T00:25:34.468Z,99635.09
2023-05-21T00:26:36.235Z,99635.78
2023-05-21T00:27:38.169Z,99632.13
2023-05-21T00:28:40.512Z,99635.94
2023-05-21T00:29:44.134Z,99631.59
2023-05-21T00:30:46.029Z,99633.44
2023-05-21T00:31:47.883Z,99630.63
2023-05-21T00:32:49.679Z,99636.09
2023-05-21T00:33:51.301Z,99630.63
2023-05-21T00:34:53.103Z,99631.78
2023-05-21T00:35:55.809Z,99633.91
2023-05-21T00:36:57.611Z,99632.25
2023-05-21T00:37:59.228Z,99633.06
2023-05-21T00:39:00.816Z,99627.94
2023-05-21T00:40:02.684Z,99618.78
2023-05-21T00:41:04.366Z,99627.56
2023-05-21T00:42:05.950Z,99624.09
2023-05-21T00:43:07.616Z,99627.72
2023-05-21T00:44:09.788Z,99623.78
2023-05-21T00:45:11.398Z,99627.56
2023-05-21T00:46:18.634Z,99626.75
2023-05-21T00:47:21.386Z,99623.25
2023-05-21T00:48:23.780Z,99621.69
2023-05-21T00:49:25.549Z,99626.63
2023-05-21T00:50:27.376Z,99620.19
2023-05-21T00:51:29.149Z,99621.84
2023-05-21T00:52:31.171Z,99615.72
2023-05-21T00:53:33.038Z,99621.03
2023-05-21T00:54:34.689Z,99615.19
2023-05-21T00:55:39.758Z,99618.00
2023-05-21T00:56:41.833Z,99607.38
2023-05-21T00:57:43.594Z,99608.38
2023-05-21T00:58:45.230Z,99612.69
2023-05-21T00:59:48.080Z,99606.56
2023-05-21T01:00:49.700Z,99608.38
2023-05-21T01:01:52.589Z,99614.84
2023-05-21T01:02:55.062Z,99599.41
2023-05-21T01:03:56.744Z,99605.50
2023-05-21T01:04:58.488Z,99604.63
2023-05-21T01:06:00.394Z,99599.28
2023-05-21T01:07:02.031Z,99610.66
2023-05-21T01:08:04.298Z,99595.75
2023-05-21T01:09:06.484Z,99593.63
2023-05-21T01:10:10.504Z,99600.28
2023-05-21T01:11:12.790Z,99600.13
2023-05-21T01:12:15.116Z,99594.66
2023-05-21T01:13:17.668Z,99600.13
2023-05-21T01:14:20.643Z,99595.66
2023-05-21T01:15:22.427Z,99592.00
2023-05-21T01:16:24.196Z,99595.66
2023-05-21T01:17:27.470Z,99605.25
2023-05-21T01:18:29.406Z,99601.94
2023-05-21T01:19:31.262Z,99596.81
2023-05-21T01:20:33.193Z,99598.63
2023-05-21T01:21:40.576Z,99592.66
2023-05-21T01:22:47.629Z,99598.47
2023-05-21T01:23:49.264Z,99599.47
2023-05-21T01:24:51.412Z,99589.38
2023-05-21T01:25:53.696Z,99590.22
2023-05-21T01:26:55.358Z,99591.19
2023-05-21T01:27:56.953Z,99591.06
2023-05-21T01:28:58.778Z,99586.56
2023-05-21T01:30:00.443Z,99578.09
2023-05-21T01:31:12.354Z,99589.53
2023-05-21T01:32:19.132Z,99574.41
2023-05-21T01:33:28.846Z,99581.69
2023-05-21T01:34:37.737Z,99585.16
2023-05-21T01:35:44.458Z,99587.13
2023-05-21T01:36:51.308Z,99592.56
2023-05-21T01:38:05.174Z,99589.09
2023-05-21T01:39:14.301Z,99589.25
2023-05-21T01:40:55.041Z,99583.94
2023-05-21T01:41:58.053Z,99597.19
2023-05-21T01:43:00.046Z,99591.34
2023-05-21T01:44:04.506Z,99592.66
2023-05-21T01:45:07.306Z,99585.16
2023-05-21T01:46:13.016Z,99582.59
2023-05-21T01:47:17.081Z,99589.06
2023-05-21T01:48:19.654Z,99583.38
2023-05-21T01:49:22.768Z,99587.53
2023-05-21T01:50:25.568Z,99583.38
2023-05-21T01:51:27.871Z,99587.69
2023-05-21T01:52:29.462Z,99593.97
2023-05-21T01:53:31.338Z,99588.22
2023-05-21T01:54:32.902Z,99591.19
2023-05-21T01:55:34.947Z,99587.53
2023-05-21T01:56:36.665Z,99591.03
2023-05-21T01:57:38.350Z,99588.66
2023-05-21T01:58:39.948Z,99587.63
2023-05-21T01:59:41.567Z,99586.22
2023-05-21T02:00:43.280Z,99586.22
2023-05-21T02:01:44.979Z,99587.69
2023-05-21T02:02:46.881Z,99586.47
2023-05-21T02:03:48.735Z,99583.97
2023-05-21T02:04:50.382Z,99582.44
2023-05-21T02:05:52.086Z,99591.66
2023-05-21T02:06:53.792Z,99587.03
2023-05-21T02:07:55.480Z,99583.13
2023-05-21T02:08:57.561Z,99593.31
2023-05-21T02:09:59.128Z,99590.13
2023-05-21T02:11:00.804Z,99588.47
2023-05-21T02:12:03.232Z,99592.09
2023-05-21T02:13:04.954Z,99586.94
2023-05-21T02:14:06.572Z,99585.56
2023-05-21T02:15:08.317Z,99589.06
2023-05-21T02:16:10.037Z,99584.91
2023-05-21T02:17:11.693Z,99580.97
2023-05-21T02:18:13.281Z,99580.28
2023-05-21T02:19:15.195Z,99578.63
2023-05-21T02:20:17.561Z,99584.22
2023-05-21T02:21:19.213Z,99588.81
2023-05-21T02:22:20.827Z,99581.84
2023-05-21T02:23:22.382Z,99591.31
2023-05-21T02:24:23.990Z,99587.97
2023-05-21T02:25:25.637Z,99587.13
2023-05-21T02:26:27.246Z,99590.44
2023-05-21T02:27:28.816Z,99593.34
2023-05-21T02:28:30.773Z,99586.94
2023-05-21T02:29:32.793Z,99589.59
2023-05-21T02:30:34.409Z,99590.19
2023-05-21T02:31:36.059Z,99587.13
2023-05-21T02:32:38.528Z,99587.84
2023-05-21T02:33:41.141Z,99591.03
2023-05-21T02:34:42.696Z,99585.75
2023-05-21T02:35:44.263Z,99590.75
2023-05-21T02:36:46.961Z,99586.44
2023-05-21T02:37:48.561Z,99586.31
2023-05-21T02:38:50.669Z,99584.66
2023-05-21T02:39:52.228Z,99590.19
2023-05-21T02:40:53.986Z,99595.06
2023-05-21T02:41:55.822Z,99590.88
2023-05-21T02:42:57.444Z,99585.88
2023-05-21T02:43:59.046Z,99584.78
2023-05-21T02:45:01.222Z,99585.47
2023-05-21T02:46:05.884Z,99586.31
2023-05-21T02:47:07.524Z,99582.69
2023-05-21T02:48:09.209Z,99588.66
2023-05-21T02:49:14.669Z,99583.22
2023-05-21T02:50:18.121Z,99578.75
2023-05-21T02:51:25.669Z,99582.53
2023-05-21T02:52:27.575Z,99585.75
2023-05-21T02:53:29.155Z,99585.25
2023-05-21T02:54:31.481Z,99576.47
2023-05-21T02:55:33.108Z,99580.50
2023-05-21T02:56:36.051Z,99579.22
2023-05-21T02:57:37.754Z,99575.34
2023-05-21T02:58:39.339Z,99583.16
2023-05-21T02:59:41.163Z,99578.81
2023-05-21T03:00:42.774Z,99578.56
2023-05-21T03:01:44.453Z,99577.06
2023-05-21T03:02:46.182Z,99579.13
2023-05-21T03:03:48.291Z,99581.47
2023-05-21T03:04:50.161Z,99579.41
2023-05-21T03:05:51.738Z,99579.16
2023-05-21T03:06:53.656Z,99585.97
2023-05-21T03:07:55.229Z,99586.66
2023-05-21T03:08:56.857Z,99584.16
2023-05-21T03:09:58.540Z,99577.06
2023-05-21T03:11:00.181Z,99584.03
2023-05-21T03:12:01.786Z,99575.78
2023-05-21T03:13:03.697Z,99572.34
2023-05-21T03:14:05.330Z,99572.75
2023-05-21T03:15:07.469Z,99573.03
2023-05-21T03:16:09.061Z,99577.91
2023-05-21T03:17:10.685Z,99582.78
2023-05-21T03:18:12.422Z,99573.88
2023-05-21T03:19:14.098Z,99578.31
2023-05-21T03:20:15.797Z,99579.56
2023-05-21T03:21:17.654Z,99575.13
2023-05-21T03:22:19.289Z,99582.91
2023-05-21T03:23:21.652Z,99578.75
2023-05-21T03:24:23.633Z,99585.84
2023-05-21T03:25:25.360Z,99586.41
2023-05-21T03:26:27.410Z,99586.22
2023-05-21T03:27:29.334Z,99580.00
2023-05-21T03:28:31.375Z,99582.38
2023-05-21T03:29:34.146Z,99573.88
2023-05-21T03:30:37.342Z,99580.38
2023-05-21T03:31:57.879Z,99570.13
2023-05-21T03:32:59.641Z,99575.41
2023-05-21T03:34:01.260Z,99581.53
2023-05-21T03:35:05.887Z,99576.94
2023-05-21T03:36:07.591Z,99574.97
2023-05-21T03:37:12.019Z,99576.50
2023-05-21T03:38:13.676Z,99574.16
2023-05-21T03:39:15.550Z,99576.38
2023-05-21T03:40:17.202Z,99575.22
2023-05-21T03:41:19.228Z,99579.03
2023-05-21T03:42:25.225Z,99575.94
2023-05-21T03:43:29.304Z,99578.31
2023-05-21T03:44:30.994Z,99580.25
2023-05-21T03:45:44.336Z,99585.53
2023-05-21T03:47:18.551Z,99583.59
2023-05-21T03:48:20.456Z,99589.44
2023-05-21T03:49:22.089Z,99585.97
2023-05-21T03:50:26.041Z,99585.00
2023-05-21T03:51:27.803Z,99584.69
2023-05-21T03:52:29.685Z,99584.00
2023-05-21T03:53:33.974Z,99585.25
2023-05-21T03:54:35.722Z,99580.94
2023-05-21T03:55:40.649Z,99587.06
2023-05-21T03:56:42.383Z,99582.78
2023-05-21T03:57:44.008Z,99582.91
2023-05-21T03:58:45.654Z,99583.31
2023-05-21T03:59:47.250Z,99581.25
2023-05-21T04:00:49.607Z,99585.41
2023-05-21T04:01:51.177Z,99586.94
2023-05-21T04:02:52.952Z,99582.19
2023-05-21T04:03:54.703Z,99585.25
2023-05-21T04:04:58.489Z,99585.50
2023-05-21T04:06:00.109Z,99588.84
2023-05-21T04:07:01.861Z,99586.06
2023-05-21T04:08:04.018Z,99581.75
2023-05-21T04:09:05.650Z,99584.22
2023-05-21T04:10:07.772Z,99589.94
2023-05-21T04:11:09.424Z,99593.81
2023-05-21T04:12:11.003Z,99588.78
2023-05-21T04:13:12.631Z,99590.00
2023-05-21T04:14:14.283Z,99591.50
2023-05-21T04:15:15.882Z,99587.88
2023-05-21T04:16:17.610Z,99597.03
2023-05-21T04:17:19.322Z,99596.59
2023-05-21T04:18:21.114Z,99593.50
2023-05-21T04:19:22.941Z,99586.13
2023-05-21T04:20:24.744Z,99587.19
2023-05-21T04:21:26.386Z,99589.25
2023-05-21T04:22:27.982Z,99585.31
2023-05-21T04:23:29.607Z,99586.84
2023-05-21T04:24:32.618Z,99591.28
2023-05-21T04:25:44.114Z,99587.16
2023-05-21T04:26:46.218Z,99591.16
2023-05-21T04:27:47.907Z,99592.38
2023-05-21T04:28:49.778Z,99595.25
2023-05-21T04:29:51.730Z,99590.31
2023-05-21T04:30:53.401Z,99592.47
2023-05-21T04:31:55.068Z,99598.81
2023-05-21T04:32:56.663Z,99598.38
2023-05-21T04:33:58.372Z,99592.94
2023-05-21T04:35:01.096Z,99595.00
2023-05-21T04:36:02.814Z,99596.38
2023-05-21T04:37:04.800Z,99599.53
2023-05-21T04:38:06.473Z,99598.41
2023-05-21T04:39:08.065Z,99595.31
2023-05-21T04:40:10.054Z,99596.81
2023-05-21T04:41:13.347Z,99599.47
2023-05-21T04:42:14.984Z,99599.31
2023-05-21T04:43:16.933Z,99595.53
2023-05-21T04:44:19.470Z,99589.91
2023-05-21T04:45:21.552Z,99591.28
2023-05-21T04:46:23.506Z,99587.47
2023-05-21T04:47:25.168Z,99587.78
2023-05-21T04:48:26.859Z,99586.50
2023-05-21T04:49:28.579Z,99584.56
2023-05-21T04:50:30.179Z,99592.19
2023-05-21T04:51:31.974Z,99591.19
2023-05-21T04:52:33.604Z,99586.56
2023-05-21T04:53:35.227Z,99588.22
2023-05-21T04:54:36.969Z,99594.91
2023-05-21T04:55:38.634Z,99590.78
2023-05-21T04:56:40.519Z,99592.63
2023-05-21T04:57:42.123Z,99592.63
2023-05-21T04:58:44.259Z,99590.19
2023-05-21T04:59:46.555Z,99583.38
2023-05-21T05:00:48.603Z,99591.78
2023-05-21T05:01:50.363Z,99593.97
2023-05-21T05:02:52.014Z,99588.19
2023-05-21T05:03:53.856Z,99586.22
2023-05-21T05:04:55.482Z,99588.19
2023-05-21T05:05:57.084Z,99589.44
2023-05-21T05:06:58.683Z,99582.16
2023-05-21T05:08:00.529Z,99590.03
2023-05-21T05:09:02.217Z,99588.41
2023-05-21T05:10:04.401Z,99590.13
2023-05-21T05:11:07.767Z,99585.72
2023-05-21T05:12:09.529Z,99586.91
2023-05-21T05:13:11.237Z,99587.78
2023-05-21T05:14:12.828Z,99586.31
2023-05-21T05:15:14.687Z,99587.69
2023-05-21T05:16:16.373Z,99581.91
2023-05-21T05:17:18.013Z,99583.78
2023-05-21T05:18:20.012Z,99584.16
2023-05-21T05:19:21.674Z,99581.22
2023-05-21T05:20:23.370Z,99589.00
2023-05-21T05:21:25.554Z,99586.88
2023-05-21T05:22:27.289Z,99588.91
2023-05-21T05:23:28.980Z,99588.75
2023-05-21T05:24:30.581Z,99586.59
2023-05-21T05:25:32.993Z,99593.13
2023-05-21T05:26:34.606Z,99589.81
2023-05-21T05:27:38.376Z,99595.16
2023-05-21T05:28:40.309Z,99585.53
2023-05-21T05:29:41.988Z,99584.69
2023-05-21T05:30:43.687Z,99591.00
2023-05-21T05:31:54.666Z,99587.31
2023-05-21T05:32:56.324Z,99588.44
2023-05-21T05:33:58.017Z,99585.06
2023-05-21T05:35:01.600Z,99588.84
2023-05-21T05:36:04.369Z,99588.50
2023-05-21T05:37:05.997Z,99587.59
2023-05-21T05:38:08.023Z,99582.88
2023-05-21T05:39:10.897Z,99595.97
2023-05-21T05:40:13.492Z,99594.22
2023-05-21T05:41:15.148Z,99579.84
2023-05-21T05:42:16.838Z,99584.75
2023-05-21T05:43:19.641Z,99582.84
2023-05-21T05:44:21.416Z,99582.69
2023-05-21T05:45:23.089Z,99579.78
2023-05-21T05:46:24.761Z,99586.06
2023-05-21T05:47:26.764Z,99574.19
2023-05-21T05:48:29.413Z,99576.81
2023-05-21T05:49:32.233Z,99571.94
2023-05-21T05:50:34.719Z,99575.34
2023-05-21T05:51:36.371Z,99580.69
2023-05-21T05:52:38.042Z,99571.31
2023-05-21T05:53:39.638Z,99580.31
2023-05-21T05:54:41.332Z,99576.63
2023-05-21T05:55:43.768Z,99582.06
2023-05-21T05:56:45.358Z,99583.38
2023-05-21T05:57:46.957Z,99577.84
2023-05-21T05:58:50.175Z,99581.63
2023-05-21T05:59:53.789Z,99579.59
2023-05-21T06:00:55.526Z,99574.47
2023-05-21T06:01:57.161Z,99578.16
2023-05-21T06:02:58.836Z,99574.91
2023-05-21T06:04:01.632Z,99576.19
2023-05-21T06:05:05.088Z,99578.13
2023-05-21T06:06:06.776Z,99577.22
2023-05-21T06:07:08.610Z,99573.81
2023-05-21T06:08:10.460Z,99572.69
2023-05-21T06:09:12.043Z,99570.97
2023-05-21T06:10:13.671Z,99566.25
2023-05-21T06:11:16.105Z,99569.41
2023-05-21T06:12:17.755Z,99562.78
2023-05-21T06:13:19.456Z,99570.69
2023-05-21T06:14:21.132Z,99568.09
2023-05-21T06:15:23.545Z,99566.25
2023-05-21T06:16:25.489Z,99562.41
2023-05-21T06:17:27.474Z,99563.84
2023-05-21T06:18:29.512Z,99565.19
2023-05-21T06:19:31.233Z,99569.03
2023-05-21T06:20:32.978Z,99567.09
2023-05-21T06:21:34.590Z,99569.38
2023-05-21T06:22:38.180Z,99563.28
2023-05-21T06:23:41.719Z,99562.28
2023-05-21T06:24:44.163Z,99559.84
2023-05-21T06:25:46.969Z,99562.34
2023-05-21T06:26:49.095Z,99559.75
2023-05-21T06:27:50.698Z,99567.75
2023-05-21T06:28:57.851Z,99568.47
2023-05-21T06:29:59.468Z,99563.63
2023-05-21T06:31:01.160Z,99566.75
2023-05-21T06:32:03.339Z,99564.50
2023-05-21T06:33:05.105Z,99563.31
2023-05-21T06:34:06.894Z,99565.41
2023-05-21T06:35:08.994Z,99558.41
2023-05-21T06:36:10.587Z,99559.03
2023-05-21T06:37:12.219Z,99560.59
2023-05-21T06:38:13.846Z,99558.75
2023-05-21T06:39:15.456Z,99556.34
2023-05-21T06:40:17.083Z,99558.00
2023-05-21T06:41:19.944Z,99560.91
2023-05-21T06:42:28.454Z,99561.41
2023-05-21T06:43:48.879Z,99555.56
2023-05-21T06:45:09.538Z,99557.91
2023-05-21T06:46:13.056Z,99548.66
2023-05-21T06:47:15.536Z,99553.63
2023-05-21T06:48:18.427Z,99550.00
2023-05-21T06:49:21.922Z,99556.00
2023-05-21T06:50:23.540Z,99545.31
2023-05-21T06:51:25.217Z,99548.88
2023-05-21T06:52:26.881Z,99554.63
2023-05-21T06:53:28.795Z,99558.38
2023-05-21T06:54:30.560Z,99553.28
2023-05-21T06:55:32.234Z,99549.41
2023-05-21T06:56:55.128Z,99554.00
2023-05-21T06:57:57.786Z,99551.13
2023-05-21T06:58:59.404Z,99542.69
2023-05-21T07:00:02.459Z,99544.97
2023-05-21T07:01:06.145Z,99550.34
2023-05-21T07:02:07.813Z,99543.78
2023-05-21T07:03:10.022Z,99551.03
2023-05-21T07:04:11.880Z,99544.91
2023-05-21T07:05:14.944Z,99548.59
2023-05-21T07:06:16.592Z,99551.91
2023-05-21T07:07:18.297Z,99554.41
2023-05-21T07:08:19.920Z,99550.91
2023-05-21T07:09:21.608Z,99551.34
2023-05-21T07:10:23.423Z,99545.81
2023-05-21T07:11:25.043Z,99548.47
2023-05-21T07:12:26.668Z,99547.22
2023-05-21T07:13:29.173Z,99541.69
2023-05-21T07:14:30.799Z,99545.84
2023-05-21T07:15:32.722Z,99543.56
2023-05-21T07:16:34.406Z,99547.06
2023-05-21T07:17:37.008Z,99547.06
2023-05-21T07:18:38.694Z,99547.47
2023-05-21T07:19:40.310Z,99539.63
2023-05-21T07:20:41.869Z,99543.16
2023-05-21T07:21:47.099Z,99542.75
2023-05-21T07:22:48.753Z,99542.75
2023-05-21T07:23:51.811Z,99544.25
2023-05-21T07:24:53.588Z,99534.75
2023-05-21T07:25:55.226Z,99540.31
2023-05-21T07:26:57.320Z,99540.53
2023-05-21T07:27:58.931Z,99543.03
2023-05-21T07:29:00.581Z,99543.84
2023-05-21T07:30:02.205Z,99542.81
2023-05-21T07:31:05.171Z,99544.88
2023-05-21T07:32:13.033Z,99540.13
2023-05-21T07:33:14.686Z,99543.66
2023-05-21T07:34:17.042Z,99546.34
2023-05-21T07:35:18.970Z,99540.75
2023-05-21T07:36:20.603Z,99542.63
2023-05-21T07:37:22.277Z,99542.63
2023-05-21T07:38:24.103Z,99538.91
2023-05-21T07:39:25.715Z,99539.75
2023-05-21T07:40:27.589Z,99540.97
2023-05-21T07:41:29.527Z,99541.75
2023-05-21T07:42:32.398Z,99537.41
2023-05-21T07:43:34.183Z,99545.69
2023-05-21T07:44:35.929Z,99539.09
2023-05-21T07:45:37.887Z,99539.91
2023-05-21T07:46:40.336Z,99533.13
2023-05-21T07:47:44.979Z,99537.44
2023-05-21T07:48:46.627Z,99531.22
2023-05-21T07:49:48.382Z,99531.00
2023-05-21T07:50:50.154Z,99526.44
2023-05-21T07:51:52.040Z,99527.06
2023-05-21T07:52:54.311Z,99536.53
2023-05-21T07:53:56.007Z,99529.09
2023-05-21T07:55:05.196Z,99528.03
2023-05-21T07:56:09.727Z,99522.28
2023-05-21T07:57:11.602Z,99538.78
2023-05-21T07:58:29.727Z,99526.78
2023-05-21T07:59:31.398Z,99526.34
2023-05-21T08:00:42.852Z,99525.09
2023-05-21T08:01:45.643Z,99521.59
2023-05-21T08:02:47.376Z,99520.13
2023-05-21T08:03:50.320Z,99523.00
2023-05-21T08:04:52.032Z,99531.44
2023-05-21T08:05:53.688Z,99524.00
2023-05-21T08:06:55.271Z,99526.31
2023-05-21T08:07:56.852Z,99520.72
2023-05-21T08:08:58.585Z,99527.34
2023-05-21T08:10:02.170Z,99527.72
2023-05-21T08:11:04.611Z,99523.78
2023-05-21T08:12:06.699Z,99526.03
2023-05-21T08:13:10.075Z,99523.94
2023-05-21T08:14:11.722Z,99524.97
2023-05-21T08:15:13.365Z,99519.97
2023-05-21T08:16:19.085Z,99522.63
2023-05-21T08:17:20.756Z,99522.63
2023-05-21T08:18:22.515Z,99527.38
2023-05-21T08:19:25.286Z,99523.19
2023-05-21T08:20:26.960Z,99519.84
2023-05-21T08:21:28.557Z,99516.41
2023-05-21T08:22:30.505Z,99521.28
2023-05-21T08:23:32.100Z,99516.72
2023-05-21T08:24:34.869Z,99514.56
2023-05-21T08:25:36.954Z,99515.63
2023-05-21T08:26:39.329Z,99518.00
2023-05-21T08:27:40.950Z,99513.25
2023-05-21T08:28:43.315Z,99514.31
2023-05-21T08:29:44.945Z,99507.69
2023-05-21T08:30:46.546Z,99503.81
2023-05-21T08:31:48.216Z,99513.91
2023-05-21T08:32:49.961Z,99513.25
2023-05-21T08:33:54.437Z,99512.56
2023-05-21T08:35:04.212Z,99507.78
2023-05-21T08:36:28.614Z,99510.69
2023-05-21T08:37:35.887Z,99516.63
2023-05-21T08:38:48.523Z,99511.41
2023-05-21T08:39:59.754Z,99510.81
2023-05-21T08:41:07.665Z,99506.09
2023-05-21T08:42:35.665Z,99501.75
2023-05-21T08:43:39.573Z,99507.88
2023-05-21T08:44:47.694Z,99506.19
2023-05-21T08:45:54.043Z,99495.34
2023-05-21T08:46:59.127Z,99497.97
2023-05-21T08:48:00.909Z,99498.50
2023-05-21T08:49:11.326Z,99496.03
2023-05-21T08:50:15.720Z,99491.41
2023-05-21T08:51:17.400Z,99488.50
2023-05-21T08:52:23.290Z,99491.69
2023-05-21T08:53:28.536Z,99493.50
2023-05-21T08:54:31.861Z,99488.47
2023-05-21T08:55:33.514Z,99492.19
2023-05-21T08:56:35.394Z,99490.31
2023-05-21T08:57:37.340Z,99493.38
2023-05-21T08:58:42.275Z,99488.00
2023-05-21T08:59:44.137Z,99484.63
2023-05-21T09:00:55.239Z,99481.84
2023-05-21T09:02:00.284Z,99485.06
2023-05-21T09:03:09.083Z,99489.28
2023-05-21T09:04:20.887Z,99491.09
2023-05-21T09:05:26.850Z,99472.56
2023-05-21T09:06:29.006Z,99482.00
2023-05-21T09:07:39.151Z,99482.94
2023-05-21T09:09:02.470Z,99479.44
2023-05-21T09:10:14.124Z,99474.31
2023-05-21T09:11:16.590Z,99478.22
2023-05-21T09:12:25.019Z,99477.28
2023-05-21T09:13:28.315Z,99487.69
2023-05-21T09:14:30.859Z,99483.72
2023-05-21T09:15:47.424Z,99485.94
2023-05-21T09:16:50.558Z,99479.97
2023-05-21T09:17:53.322Z,99481.72
2023-05-21T09:19:24.462Z,99472.94
2023-05-21T09:20:27.644Z,99483.41
2023-05-21T09:21:33.968Z,99474.38
2023-05-21T09:22:49.031Z,99471.72
2023-05-21T09:23:59.091Z,99475.09
2023-05-21T09:25:04.595Z,99474.88
2023-05-21T09:26:12.253Z,99469.84
2023-05-21T09:27:18.018Z,99475.81
2023-05-21T09:28:19.903Z,99463.13
2023-05-21T09:29:21.611Z,99471.81
2023-05-21T09:30:26.810Z,99470.31
2023-05-21T09:31:30.422Z,99467.72
2023-05-21T09:32:32.081Z,99466.56
2023-05-21T09:33:33.879Z,99467.16
2023-05-21T09:34:36.535Z,99473.34
2023-05-21T09:35:44.048Z,99469.59
2023-05-21T09:36:45.755Z,99465.28
2023-05-21T09:37:49.118Z,99471.72
2023-05-21T09:38:51.450Z,99467.13
2023-05-21T09:39:53.042Z,99469.84
2023-05-21T09:40:57.338Z,99469.69
2023-05-21T09:41:59.747Z,99469.25
2023-05-21T09:43:01.967Z,99466.44
2023-05-21T09:44:04.337Z,99465.84
2023-05-21T09:45:10.108Z,99463.28
2023-05-21T09:46:12.032Z,99470.66
2023-05-21T09:47:19.906Z,99461.75
2023-05-21T09:48:40.793Z,99468.69
2023-05-21T09:49:45.344Z,99461.97
2023-05-21T09:50:46.903Z,99466.44
2023-05-21T09:51:48.537Z,99463.84
2023-05-21T09:52:51.596Z,99458.81
2023-05-21T09:53:57.454Z,99470.44
2023-05-21T09:54:59.009Z,99466.19
2023-05-21T09:56:00.608Z,99461.16
2023-05-21T09:57:03.625Z,99463.38
2023-05-21T09:58:05.418Z,99465.47
2023-05-21T09:59:07.594Z,99465.03
2023-05-21T10:00:17.022Z,99461.97
2023-05-21T10:01:19.391Z,99465.63
2023-05-21T10:02:23.591Z,99462.66
2023-05-21T10:03:27.680Z,99458.69
2023-05-21T10:04:30.258Z,99458.34
2023-05-21T10:05:33.078Z,99464.78
2023-05-21T10:06:42.006Z,99450.38
2023-05-21T10:07:51.440Z,99448.50
2023-05-21T10:08:55.623Z,99450.03
2023-05-21T10:10:00.082Z,99442.41
2023-05-21T10:11:03.858Z,99440.06
2023-05-21T10:12:06.236Z,99450.16
2023-05-21T10:13:10.037Z,99444.63
2023-05-21T10:14:23.262Z,99451.34
2023-05-21T10:15:25.251Z,99444.50
2023-05-21T10:16:27.012Z,99436.53
2023-05-21T10:17:30.133Z,99441.31
2023-05-21T10:18:33.358Z,99437.41
2023-05-21T10:19:35.198Z,99440.47
2023-05-21T10:20:38.182Z,99436.25
2023-05-21T10:21:40.961Z,99436.50
2023-05-21T10:22:43.914Z,99435.69
2023-05-21T10:23:46.231Z,99428.72
2023-05-21T10:24:48.677Z,99434.84
2023-05-21T10:25:51.206Z,99439.31
2023-05-21T10:26:53.514Z,99431.00
2023-05-21T10:27:55.854Z,99431.22
2023-05-21T10:28:57.577Z,99433.44
2023-05-21T10:30:00.040Z,99434.69
2023-05-21T10:31:02.391Z,99432.19
2023-05-21T10:32:05.526Z,99431.25
2023-05-21T10:33:07.840Z,99423.22
2023-05-21T10:34:11.492Z,99429.69
2023-05-21T10:35:16.165Z,99428.97
2023-05-21T10:36:17.768Z,99423.44
2023-05-21T10:37:22.973Z,99423.06
2023-05-21T10:38:25.226Z,99417.06
2023-05-21T10:39:27.402Z,99422.47
2023-05-21T10:40:28.933Z,99417.31
2023-05-21T10:41:42.312Z,99415.44
2023-05-21T10:42:57.100Z,99415.44
2023-05-21T10:44:19.602Z,99409.38
2023-05-21T10:45:23.791Z,99415.34
2023-05-21T10:46:45.906Z,99411.50
2023-05-21T10:47:47.537Z,99414.44
2023-05-21T10:49:16.158Z,99410.69
2023-05-21T10:50:36.035Z,99413.03
2023-05-21T10:52:06.724Z,99410.06
2023-05-21T10:53:35.166Z,99407.03
2023-05-21T10:55:00.666Z,99402.78
2023-05-21T10:56:05.218Z,99405.31
2023-05-21T10:57:31.701Z,99400.56
2023-05-21T10:59:23.858Z,99404.31
2023-05-21T11:00:27.329Z,99406.16
2023-05-21T11:01:31.336Z,99412.47
2023-05-21T11:02:33.498Z,99403.91
2023-05-21T11:03:37.871Z,99405.75
2023-05-21T11:04:41.176Z,99400.50
2023-05-21T11:05:56.263Z,99404.28
2023-05-21T11:07:00.815Z,99415.16
2023-05-21T11:08:02.436Z,99404.81
2023-05-21T11:09:14.605Z,99416.34
2023-05-21T11:10:41.246Z,99395.81
2023-05-21T11:11:49.820Z,99397.66
2023-05-21T11:13:13.919Z,99400.63
2023-05-21T11:14:38.192Z,99403.28
2023-05-21T11:15:58.140Z,99403.56
2023-05-21T11:17:00.919Z,99397.44
2023-05-21T11:18:02.660Z,99405.03
2023-05-21T11:19:04.434Z,99405.84
2023-05-21T11:20:11.408Z,99402.19
2023-05-21T11:21:17.149Z,99397.69
2023-05-21T11:22:26.376Z,99396.38
2023-05-21T11:23:50.536Z,99390.09
2023-05-21T11:24:56.399Z,99397.34
2023-05-21T11:26:01.618Z,99396.38
2023-05-21T11:27:03.682Z,99401.53
2023-05-21T11:28:08.155Z,99396.69
2023-05-21T11:29:11.071Z,99394.81
2023-05-21T11:30:19.417Z,99392.50
2023-05-21T11:31:28.137Z,99400.16
2023-05-21T11:32:29.815Z,99401.63
2023-05-21T11:33:31.472Z,99395.03
2023-05-21T11:34:43.578Z,99392.94
2023-05-21T11:35:45.163Z,99388.16
2023-05-21T11:36:48.680Z,99387.31
2023-05-21T11:37:54.206Z,99393.84
2023-05-21T11:39:09.358Z,99387.38
2023-05-21T11:40:21.081Z,99392.28
2023-05-21T11:41:22.944Z,99387.38
2023-05-21T11:42:30.417Z,99395.06
2023-05-21T11:43:32.005Z,99391.03
2023-05-21T11:44:42.943Z,99391.53
2023-05-21T11:45:44.553Z,99383.44
2023-05-21T11:46:46.536Z,99387.66
2023-05-21T11:47:50.011Z,99386.03
2023-05-21T11:48:52.654Z,99383.31
2023-05-21T11:49:55.360Z,99383.66
2023-05-21T11:50:57.173Z,99384.97
2023-05-21T11:52:00.372Z,99385.38
2023-05-21T11:53:02.322Z,99379.00
2023-05-21T11:54:04.307Z,99384.50
2023-05-21T11:55:06.510Z,99387.44
2023-05-21T11:56:08.528Z,99378.09
2023-05-21T11:57:10.369Z,99382.69
2023-05-21T11:58:13.319Z,99381.06
2023-05-21T11:59:17.133Z,99380.31
2023-05-21T12:00:20.329Z,99373.91
2023-05-21T12:01:23.912Z,99377.34
2023-05-21T12:02:27.412Z,99378.09
2023-05-21T12:03:29.182Z,99378.34
2023-05-21T12:04:31.689Z,99372.69
2023-05-21T12:05:47.124Z,99374.41
2023-05-21T12:06:48.794Z,99363.66
2023-05-21T12:07:50.549Z,99367.53
2023-05-21T12:08:52.254Z,99362.75
2023-05-21T12:09:54.466Z,99363.59
2023-05-21T12:11:00.282Z,99366.22
2023-05-21T12:12:02.070Z,99363.94
2023-05-21T12:13:03.720Z,99364.41
2023-05-21T12:14:10.803Z,99362.03
2023-05-21T12:15:12.497Z,99366.94
2023-05-21T12:16:14.979Z,99356.97
2023-05-21T12:17:20.653Z,99359.00
2023-05-21T12:18:22.294Z,99365.13
2023-05-21T12:19:24.176Z,99364.72
2023-05-21T12:20:26.695Z,99367.44
2023-05-21T12:21:29.594Z,99367.19
2023-05-21T12:22:31.330Z,99355.97
2023-05-21T12:23:32.925Z,99357.69
2023-05-21T12:24:35.719Z,99360.16
2023-05-21T12:25:37.369Z,99354.66
2023-05-21T12:26:39.058Z,99355.88
2023-05-21T12:27:40.888Z,99356.72
2023-05-21T12:28:42.640Z,99364.72
2023-05-21T12:29:45.937Z,99357.53